Time;durP1;ratioP1;P1;durP2;ratioP2;P2;SDS_P1;SDS_P2;PMS_P1;PMS_P2;Temp;Humidity;BMP_temperature;BMP_pressure;BME280_temperature;BME280_humidity;BME280_pressure;Samples;Min_cycle;Max_cycle;Signal;HPM_P1;HPM_P2
2022/06/19 00:01:49;;;;;;;;;;;20.50;70.30;;;;;;5040345;28;1169;-73
2022/06/19 00:04:15;;;;;;;;;;;20.60;70.40;;;;;;5056865;28;1357;-71
2022/06/19 00:06:41;;;;;;;;;;;20.60;70.40;;;;;;5075260;28;1134;-71
2022/06/19 00:09:06;;;;;;;;;;;20.60;70.40;;;;;;5057216;28;1329;-71
2022/06/19 00:11:33;;;;;;;;;;;20.60;70.40;;;;;;5074636;28;1083;-71
2022/06/19 00:13:59;;;;;;;;;;;20.60;70.40;;;;;;5074776;28;1902;-71
2022/06/19 00:16:24;;;;;;;;;;;20.60;70.40;;;;;;5061576;28;1621;-71
2022/06/19 00:18:50;;;;;;;;;;;20.50;70.30;;;;;;5074478;28;1437;-71
2022/06/19 00:21:17;;;;;;;;;;;20.60;70.40;;;;;;5074402;28;1287;-72
2022/06/19 00:23:43;;;;;;;;;;;20.60;70.40;;;;;;5074610;28;1304;-72
2022/06/19 00:26:08;;;;;;;;;;;20.60;70.40;;;;;;5074578;28;1258;-69
2022/06/19 00:28:33;;;;;;;;;;;20.60;70.40;;;;;;5056573;28;1367;-70
2022/06/19 00:30:59;;;;;;;;;;;20.60;70.40;;;;;;5074242;28;1314;-71
2022/06/19 00:33:24;;;;;;;;;;;20.60;70.40;;;;;;5074291;28;1217;-73
2022/06/19 00:35:50;;;;;;;;;;;20.60;70.40;;;;;;5056082;28;1972;-72
2022/06/19 00:38:15;;;;;;;;;;;20.60;70.40;;;;;;5074326;28;1268;-72
2022/06/19 00:40:40;;;;;;;;;;;20.60;70.40;;;;;;5073903;28;1329;-72
2022/06/19 00:43:06;;;;;;;;;;;20.60;70.40;;;;;;5074331;28;1306;-73
2022/06/19 00:45:31;;;;;;;;;;;20.60;71.10;;;;;;5074135;28;1262;-73
2022/06/19 00:47:57;;;;;;;;;;;20.60;70.40;;;;;;5074134;28;1300;-72
2022/06/19 00:50:27;;;;;;;;;;;20.60;70.40;;;;;;5055787;28;1347;-72
2022/06/19 00:52:52;;;;;;;;;;;20.60;70.40;;;;;;5056279;28;1412;-72
2022/06/19 00:55:23;;;;;;;;;;;20.60;70.40;;;;;;5056078;28;1898;-73
2022/06/19 00:57:50;;;;;;;;;;;20.60;70.40;;;;;;5056102;28;1299;-72
2022/06/19 01:00:26;;;;;;;;;;;20.60;70.40;;;;;;5055940;28;1386;-71
2022/06/19 01:02:53;;;;;;;;;;;20.60;70.40;;;;;;5055639;28;1280;-70
2022/06/19 01:05:18;;;;;;;;;;;20.60;70.40;;;;;;5073736;28;1425;-70
2022/06/19 01:07:44;;;;;;;;;;;20.60;70.40;;;;;;5055669;28;1386;-70
2022/06/19 01:10:10;;;;;;;;;;;20.60;70.40;;;;;;5073383;28;1123;-70
2022/06/19 01:12:35;;;;;;;;;;;20.60;70.40;;;;;;5073620;28;1255;-70
2022/06/19 01:15:02;;;;;;;;;;;20.60;70.40;;;;;;5073267;28;1961;-70
2022/06/19 01:17:27;;;;;;;;;;;20.60;70.40;;;;;;5058990;28;2087;-70
2022/06/19 01:19:53;;;;;;;;;;;20.60;70.40;;;;;;5055357;28;1221;-71
2022/06/19 01:22:21;;;;;;;;;;;20.60;70.40;;;;;;5055579;28;1345;-70
2022/06/19 01:24:49;;;;;;;;;;;20.60;70.40;;;;;;5073346;28;1329;-70
2022/06/19 01:28:45;;;;;;;;;;;20.60;70.40;;;;;;5073363;28;1305;-71
2022/06/19 01:30:00;;;;;;;;;;;20.60;70.40;;;;;;5057917;28;1239;-71
2022/06/19 01:32:26;;;;;;;;;;;20.60;70.40;;;;;;5055308;28;1321;-72
2022/06/19 01:34:52;;;;;;;;;;;20.60;70.40;;;;;;5055125;28;1891;-71
2022/06/19 01:37:20;;;;;;;;;;;20.60;70.40;;;;;;5073193;28;1439;-71
2022/06/19 01:39:50;;;;;;;;;;;20.60;70.40;;;;;;5055377;28;1297;-71
2022/06/19 01:42:15;;;;;;;;;;;20.60;70.40;;;;;;5055118;28;1044;-71
2022/06/19 01:44:41;;;;;;;;;;;20.60;70.40;;;;;;5072931;28;1252;-71
2022/06/19 01:47:06;;;;;;;;;;;20.60;70.40;;;;;;5072801;28;1223;-72
2022/06/19 01:49:32;;;;;;;;;;;20.60;70.40;;;;;;5055154;28;1315;-72
2022/06/19 01:51:58;;;;;;;;;;;20.60;70.40;;;;;;5054936;28;1326;-72
2022/06/19 01:54:24;;;;;;;;;;;20.60;70.40;;;;;;5055015;28;1898;-71
2022/06/19 01:56:50;;;;;;;;;;;20.60;70.40;;;;;;5054811;28;1451;-72
2022/06/19 01:59:16;;;;;;;;;;;20.60;70.40;;;;;;5055006;28;1288;-72
2022/06/19 02:01:41;;;;;;;;;;;20.60;70.40;;;;;;5054635;28;1234;-71
2022/06/19 02:04:07;;;;;;;;;;;20.60;70.40;;;;;;5072963;28;1774;-72
2022/06/19 02:06:37;;;;;;;;;;;20.60;70.40;;;;;;5052286;28;1406;-70
2022/06/19 02:09:03;;;;;;;;;;;20.60;70.40;;;;;;5046369;28;1353;-71
2022/06/19 02:11:29;;;;;;;;;;;20.60;70.40;;;;;;5048381;28;1070;-70
2022/06/19 02:13:57;;;;;;;;;;;20.60;70.40;;;;;;5054058;28;1902;-69
2022/06/19 02:16:23;;;;;;;;;;;20.60;70.40;;;;;;5064821;28;1553;-72
2022/06/19 02:18:49;;;;;;;;;;;20.60;70.40;;;;;;5072744;28;1313;-69
2022/06/19 02:21:18;;;;;;;;;;;20.60;70.40;;;;;;5054631;28;1318;-69
2022/06/19 02:23:44;;;;;;;;;;;20.60;70.40;;;;;;5055115;28;1370;-70
2022/06/19 02:26:09;;;;;;;;;;;20.60;70.40;;;;;;5072444;28;1327;-71
2022/06/19 02:28:38;;;;;;;;;;;20.60;70.40;;;;;;5054741;28;1264;-71
2022/06/19 02:31:04;;;;;;;;;;;20.60;70.40;;;;;;5054836;28;1259;-71
2022/06/19 02:33:30;;;;;;;;;;;20.60;70.40;;;;;;5072556;28;1313;-72
2022/06/19 02:35:55;;;;;;;;;;;20.60;70.40;;;;;;5055186;28;1913;-72
2022/06/19 02:38:21;;;;;;;;;;;20.60;70.40;;;;;;5072545;28;1071;-71
2022/06/19 02:40:52;;;;;;;;;;;20.60;70.40;;;;;;5054397;28;1456;-72
2022/06/19 02:43:19;;;;;;;;;;;20.60;70.40;;;;;;5072392;28;1338;-71
2022/06/19 02:45:44;;;;;;;;;;;20.60;70.40;;;;;;5072275;28;1466;-71
2022/06/19 02:48:19;;;;;;;;;;;20.60;70.40;;;;;;5054693;28;1347;-71
2022/06/19 02:50:44;;;;;;;;;;;20.60;70.40;;;;;;5054326;28;1393;-71
2022/06/19 02:53:10;;;;;;;;;;;20.60;70.40;;;;;;5072296;28;1118;-71
2022/06/19 02:55:35;;;;;;;;;;;20.60;70.40;;;;;;5072414;28;1973;-71
2022/06/19 02:58:01;;;;;;;;;;;20.60;70.40;;;;;;5072436;28;1329;-72
2022/06/19 03:00:26;;;;;;;;;;;20.60;70.40;;;;;;5072074;28;1261;-71
2022/06/19 03:02:57;;;;;;;;;;;20.60;70.40;;;;;;5072690;28;1040;-71
2022/06/19 03:05:24;;;;;;;;;;;20.60;70.40;;;;;;5054206;28;1363;-71
2022/06/19 03:07:49;;;;;;;;;;;20.60;70.40;;;;;;5054259;28;1252;-71
2022/06/19 03:10:15;;;;;;;;;;;20.60;70.40;;;;;;5054031;28;1275;-71
2022/06/19 03:12:41;;;;;;;;;;;20.60;70.40;;;;;;5054488;28;1324;-71
2022/06/19 03:15:06;;;;;;;;;;;20.60;70.40;;;;;;5072010;28;1910;-71
2022/06/19 03:17:32;;;;;;;;;;;20.60;70.40;;;;;;5057503;28;1344;-71
2022/06/19 03:19:57;;;;;;;;;;;20.60;70.40;;;;;;5071845;28;1229;-72
2022/06/19 03:22:23;;;;;;;;;;;20.60;70.40;;;;;;5071935;28;1286;-71
2022/06/19 03:24:48;;;;;;;;;;;20.60;70.40;;;;;;5054705;28;1179;-71
2022/06/19 03:27:13;;;;;;;;;;;20.60;70.40;;;;;;5072419;28;1397;-72
2022/06/19 03:29:39;;;;;;;;;;;20.60;70.40;;;;;;5065642;28;1299;-72
2022/06/19 03:32:05;;;;;;;;;;;20.60;70.40;;;;;;5075367;28;1266;-72
2022/06/19 03:34:30;;;;;;;;;;;20.60;70.40;;;;;;5075226;28;1922;-72
2022/06/19 03:36:56;;;;;;;;;;;20.60;70.40;;;;;;5075563;28;1275;-72
2022/06/19 03:39:21;;;;;;;;;;;20.60;70.40;;;;;;5075638;28;1338;-72
2022/06/19 03:41:47;;;;;;;;;;;20.60;70.40;;;;;;5057333;28;1056;-72
2022/06/19 03:44:12;;;;;;;;;;;20.60;70.40;;;;;;5075396;28;1343;-72
2022/06/19 03:46:38;;;;;;;;;;;20.60;70.40;;;;;;5057448;28;1258;-72
2022/06/19 03:49:03;;;;;;;;;;;20.60;70.40;;;;;;5057556;28;1122;-71
2022/06/19 03:51:29;;;;;;;;;;;20.60;70.40;;;;;;5074876;28;1074;-71
2022/06/19 03:53:54;;;;;;;;;;;20.60;70.40;;;;;;5075150;28;1221;-71
2022/06/19 03:56:21;;;;;;;;;;;20.60;70.40;;;;;;5075083;28;1945;-72
2022/06/19 03:58:46;;;;;;;;;;;20.60;70.40;;;;;;5057206;28;1071;-72
2022/06/19 04:01:15;;;;;;;;;;;20.60;70.40;;;;;;5074945;28;1204;-71
2022/06/19 04:03:41;;;;;;;;;;;20.60;70.40;;;;;;5057160;28;1393;-71
2022/06/19 04:06:07;;;;;;;;;;;20.60;70.40;;;;;;5074728;28;1389;-72
2022/06/19 04:08:33;;;;;;;;;;;20.60;70.40;;;;;;5075070;28;1324;-71
2022/06/19 04:10:58;;;;;;;;;;;20.60;70.40;;;;;;5056951;28;1214;-71
2022/06/19 04:13:23;;;;;;;;;;;20.60;70.40;;;;;;5074925;28;1282;-71
2022/06/19 04:15:49;;;;;;;;;;;20.60;70.40;;;;;;5074852;28;1910;-71
2022/06/19 04:18:14;;;;;;;;;;;20.60;70.40;;;;;;5074769;28;1071;-71
2022/06/19 04:20:40;;;;;;;;;;;20.60;70.40;;;;;;5073730;28;1318;-71
2022/06/19 04:23:08;;;;;;;;;;;20.60;70.40;;;;;;5074693;28;1308;-71
2022/06/19 04:25:33;;;;;;;;;;;20.60;70.40;;;;;;5074552;28;1366;-71
2022/06/19 04:27:59;;;;;;;;;;;20.60;70.40;;;;;;5074607;28;1154;-71
2022/06/19 04:30:24;;;;;;;;;;;20.60;70.40;;;;;;5074213;28;1162;-72
2022/06/19 04:32:50;;;;;;;;;;;20.60;70.40;;;;;;5074474;28;1316;-71
2022/06/19 04:35:15;;;;;;;;;;;20.60;70.40;;;;;;5073851;28;1977;-71
2022/06/19 04:37:43;;;;;;;;;;;20.60;70.40;;;;;;5073287;28;1123;-71
2022/06/19 04:40:09;;;;;;;;;;;20.60;70.40;;;;;;5073962;28;1112;-71
2022/06/19 04:42:34;;;;;;;;;;;20.60;70.40;;;;;;5051763;28;1990;-69
2022/06/19 04:45:00;;;;;;;;;;;20.60;70.40;;;;;;5068921;28;1768;-68
2022/06/19 04:47:25;;;;;;;;;;;20.70;70.50;;;;;;5066982;28;1085;-68
2022/06/19 04:49:51;;;;;;;;;;;20.60;70.40;;;;;;5069399;28;1154;-69
2022/06/19 04:52:16;;;;;;;;;;;20.60;70.40;;;;;;5073918;28;1330;-69
2022/06/19 04:54:42;;;;;;;;;;;20.60;70.40;;;;;;5073865;28;1894;-69
2022/06/19 04:57:07;;;;;;;;;;;20.60;70.40;;;;;;5073893;28;1278;-72
2022/06/19 04:59:33;;;;;;;;;;;20.60;70.40;;;;;;5073859;28;1310;-71
2022/06/19 05:01:58;;;;;;;;;;;20.60;70.40;;;;;;5073558;28;1498;-70
2022/06/19 05:04:23;;;;;;;;;;;20.60;70.40;;;;;;5073483;28;1338;-70
2022/06/19 05:06:49;;;;;;;;;;;20.60;70.40;;;;;;5073765;28;1272;-70
2022/06/19 05:09:14;;;;;;;;;;;20.60;70.40;;;;;;5073833;28;1303;-69
2022/06/19 05:11:40;;;;;;;;;;;20.70;70.50;;;;;;5073264;28;1339;-72
2022/06/19 05:14:05;;;;;;;;;;;20.60;70.40;;;;;;5073469;28;1902;-70
2022/06/19 05:16:31;;;;;;;;;;;20.60;70.40;;;;;;5073446;28;1627;-71
2022/06/19 05:18:56;;;;;;;;;;;20.60;70.40;;;;;;5073202;28;1264;-71
2022/06/19 05:21:22;;;;;;;;;;;20.60;70.40;;;;;;5069223;28;1708;-71
2022/06/19 05:23:48;;;;;;;;;;;20.60;70.40;;;;;;5073462;28;1352;-70
2022/06/19 05:26:16;;;;;;;;;;;20.60;70.40;;;;;;5054374;28;1293;-69
2022/06/19 05:28:42;;;;;;;;;;;20.60;70.40;;;;;;5073351;28;1365;-70
2022/06/19 05:31:07;;;;;;;;;;;20.60;70.40;;;;;;5073135;28;1334;-69
2022/06/19 05:33:33;;;;;;;;;;;20.60;70.40;;;;;;5072641;28;1350;-69
2022/06/19 05:35:58;;;;;;;;;;;20.60;70.50;;;;;;5072952;28;1910;-71
2022/06/19 05:38:24;;;;;;;;;;;20.60;70.40;;;;;;5072974;28;1267;-70
2022/06/19 05:40:51;;;;;;;;;;;20.60;70.40;;;;;;5055061;28;1335;-70
2022/06/19 05:43:16;;;;;;;;;;;20.60;70.40;;;;;;5072961;28;1254;-69
2022/06/19 05:45:48;;;;;;;;;;;20.60;70.40;;;;;;5055203;28;1302;-70
2022/06/19 05:48:13;;;;;;;;;;;20.60;70.40;;;;;;5054565;28;1072;-74
2022/06/19 05:50:39;;;;;;;;;;;20.60;70.40;;;;;;5072642;28;1251;-70
2022/06/19 05:53:04;;;;;;;;;;;20.70;70.50;;;;;;5072849;28;1362;-68
2022/06/19 05:55:30;;;;;;;;;;;20.60;70.40;;;;;;5072792;28;1946;-72
2022/06/19 05:57:55;;;;;;;;;;;20.60;70.60;;;;;;5072818;28;1244;-72
2022/06/19 06:00:21;;;;;;;;;;;20.60;70.40;;;;;;5063967;28;1071;-72
2022/06/19 06:02:46;;;;;;;;;;;20.60;70.40;;;;;;5065814;28;1095;-72
2022/06/19 06:05:12;;;;;;;;;;;20.60;70.40;;;;;;5061166;28;1196;-71
2022/06/19 06:07:37;;;;;;;;;;;20.60;70.40;;;;;;5059375;28;1135;-72
2022/06/19 06:10:02;;;;;;;;;;;20.70;70.40;;;;;;5072858;28;1134;-72
2022/06/19 06:12:28;;;;;;;;;;;20.70;70.50;;;;;;5072854;28;1270;-70
2022/06/19 06:14:53;;;;;;;;;;;20.60;70.40;;;;;;5072626;28;1905;-71
2022/06/19 06:17:21;;;;;;;;;;;20.70;70.50;;;;;;5072538;28;1695;-70
2022/06/19 06:19:47;;;;;;;;;;;20.60;70.40;;;;;;5072426;28;1202;-70
2022/06/19 06:22:12;;;;;;;;;;;20.70;70.50;;;;;;5069301;28;1782;-70
2022/06/19 06:24:38;;;;;;;;;;;20.60;70.40;;;;;;5054507;28;1375;-70
2022/06/19 06:27:05;;;;;;;;;;;20.60;70.40;;;;;;5065537;28;1266;-71
2022/06/19 06:29:30;;;;;;;;;;;20.70;70.50;;;;;;5064358;28;1160;-73
2022/06/19 06:31:58;;;;;;;;;;;20.60;70.40;;;;;;5066779;28;1330;-72
2022/06/19 06:34:23;;;;;;;;;;;20.60;70.40;;;;;;5072206;28;1922;-72
2022/06/19 06:36:49;;;;;;;;;;;20.60;70.40;;;;;;5072497;28;1446;-70
2022/06/19 06:39:14;;;;;;;;;;;20.70;70.50;;;;;;5072448;28;1276;-73
2022/06/19 06:41:40;;;;;;;;;;;20.70;70.40;;;;;;5072094;28;1196;-71
2022/06/19 06:44:05;;;;;;;;;;;20.60;70.40;;;;;;5072405;28;1440;-70
2022/06/19 06:46:31;;;;;;;;;;;20.60;70.40;;;;;;5072047;28;1080;-71
2022/06/19 06:48:59;;;;;;;;;;;20.70;70.40;;;;;;5072630;28;1063;-72
2022/06/19 06:51:26;;;;;;;;;;;20.70;70.50;;;;;;5054601;28;1139;-74
2022/06/19 06:53:51;;;;;;;;;;;20.70;70.50;;;;;;5054457;28;1355;-69
2022/06/19 06:56:17;;;;;;;;;;;20.70;70.40;;;;;;5063685;28;1890;-69
2022/06/19 06:58:42;;;;;;;;;;;20.70;70.50;;;;;;5072350;28;1196;-71
2022/06/19 07:01:09;;;;;;;;;;;20.70;70.40;;;;;;5074283;28;1326;-72
2022/06/19 07:03:34;;;;;;;;;;;20.70;70.50;;;;;;5075848;28;1343;-72
2022/06/19 07:06:00;;;;;;;;;;;20.70;70.40;;;;;;5075979;28;1067;-71
2022/06/19 07:08:25;;;;;;;;;;;20.70;70.50;;;;;;5076181;28;1322;-72
2022/06/19 07:10:50;;;;;;;;;;;20.60;70.40;;;;;;5074254;28;1111;-71
2022/06/19 07:13:16;;;;;;;;;;;20.70;70.50;;;;;;5075975;28;1333;-71
2022/06/19 07:15:41;;;;;;;;;;;20.70;70.50;;;;;;5075406;28;1976;-72
2022/06/19 07:18:07;;;;;;;;;;;20.70;70.50;;;;;;5071049;28;2213;-72
2022/06/19 07:20:32;;;;;;;;;;;20.70;70.50;;;;;;5067124;28;1302;-72
2022/06/19 07:22:57;;;;;;;;;;;20.70;70.40;;;;;;5071036;28;1132;-73
2022/06/19 07:25:23;;;;;;;;;;;20.70;70.50;;;;;;5059313;28;1336;-72
2022/06/19 07:27:48;;;;;;;;;;;20.70;70.50;;;;;;5069110;28;1158;-72
2022/06/19 07:30:17;;;;;;;;;;;20.70;70.40;;;;;;5073348;28;1121;-72
2022/06/19 07:32:43;;;;;;;;;;;20.70;70.50;;;;;;5050902;28;1106;-72
2022/06/19 07:35:08;;;;;;;;;;;20.70;70.40;;;;;;5075280;28;1906;-72
2022/06/19 07:37:34;;;;;;;;;;;20.70;70.50;;;;;;5075409;28;1268;-73
2022/06/19 07:39:59;;;;;;;;;;;20.70;70.40;;;;;;5075128;28;1044;-72
2022/06/19 07:42:25;;;;;;;;;;;20.70;70.40;;;;;;5075556;28;1300;-72
2022/06/19 07:44:50;;;;;;;;;;;20.70;70.40;;;;;;5075025;28;1353;-72
2022/06/19 07:50:09;;;;;;;;;;;20.70;70.50;;;;;;5075018;28;1373;-72
2022/06/19 07:52:35;;;;;;;;;;;20.70;70.40;;;;;;5075211;28;1283;-72
2022/06/19 07:55:00;;;;;;;;;;;20.70;70.40;;;;;;5075035;28;1901;-71
2022/06/19 07:57:26;;;;;;;;;;;20.70;70.50;;;;;;5074819;28;1212;-72
2022/06/19 07:59:52;;;;;;;;;;;20.70;70.40;;;;;;5074745;28;1287;-73
2022/06/19 08:02:18;;;;;;;;;;;20.70;70.40;;;;;;5075022;28;1313;-71
2022/06/19 08:04:44;;;;;;;;;;;20.70;70.50;;;;;;5075007;28;1305;-72
2022/06/19 08:07:13;;;;;;;;;;;20.70;70.40;;;;;;5057024;28;1295;-72
2022/06/19 08:09:38;;;;;;;;;;;20.70;70.40;;;;;;5074635;28;1087;-72
2022/06/19 08:12:04;;;;;;;;;;;20.70;70.50;;;;;;5074853;28;1290;-72
2022/06/19 08:14:29;;;;;;;;;;;20.70;70.50;;;;;;5074676;28;1898;-72
2022/06/19 08:16:55;;;;;;;;;;;20.70;70.40;;;;;;5074740;28;1687;-72
2022/06/19 08:19:21;;;;;;;;;;;20.70;70.40;;;;;;5074700;28;1254;-72
2022/06/19 08:21:46;;;;;;;;;;;20.70;70.40;;;;;;5074219;28;1235;-72
2022/06/19 08:24:12;;;;;;;;;;;20.70;70.40;;;;;;5074552;28;1205;-72
2022/06/19 08:26:37;;;;;;;;;;;20.70;70.40;;;;;;5074377;28;1340;-72
2022/06/19 08:29:02;;;;;;;;;;;20.70;70.50;;;;;;5074677;28;1330;-72
2022/06/19 08:31:28;;;;;;;;;;;20.70;70.40;;;;;;5074242;28;1321;-72
2022/06/19 08:33:54;;;;;;;;;;;20.70;70.50;;;;;;5074262;28;1386;-72
2022/06/19 08:36:19;;;;;;;;;;;20.70;70.40;;;;;;5074848;28;1961;-71
2022/06/19 08:38:46;;;;;;;;;;;20.70;70.40;;;;;;5056356;28;1568;-70
2022/06/19 08:41:30;;;;;;;;;;;20.70;70.40;;;;;;5055965;28;1292;-71
2022/06/19 08:44:14;;;;;;;;;;;20.70;70.40;;;;;;5074150;28;1335;-71
2022/06/19 08:47:02;;;;;;;;;;;20.70;70.40;;;;;;5074058;28;1194;-71
2022/06/19 08:49:32;;;;;;;;;;;20.70;70.40;;;;;;5073983;28;1067;-71
2022/06/19 08:52:12;;;;;;;;;;;20.70;70.40;;;;;;5073808;28;1328;-71
2022/06/19 08:54:57;;;;;;;;;;;20.70;70.40;;;;;;5073898;28;1894;-71
2022/06/19 08:57:28;;;;;;;;;;;20.70;70.40;;;;;;5073956;28;1308;-71
2022/06/19 08:59:54;;;;;;;;;;;20.70;70.50;;;;;;5073347;28;1262;-71
2022/06/19 09:02:34;;;;;;;;;;;20.70;70.50;;;;;;5073553;28;1307;-71
2022/06/19 09:07:52;;;;;;;;;;;20.70;70.50;;;;;;5073561;28;1327;-71
2022/06/19 09:10:18;;;;;;;;;;;20.70;70.40;;;;;;5073142;28;1130;-71
2022/06/19 09:12:53;;;;;;;;;;;20.70;70.50;;;;;;5073735;28;1285;-70
2022/06/19 09:15:20;;;;;;;;;;;20.70;70.40;;;;;;5055634;28;1902;-71
2022/06/19 09:18:00;;;;;;;;;;;20.70;70.40;;;;;;5056424;28;1296;-71
2022/06/19 09:20:44;;;;;;;;;;;20.70;70.40;;;;;;5049802;28;1330;-71
2022/06/19 09:23:23;;;;;;;;;;;20.70;70.40;;;;;;5072901;28;1077;-71
2022/06/19 09:25:53;;;;;;;;;;;20.70;70.40;;;;;;5055488;28;1351;-71
2022/06/19 09:28:25;;;;;;;;;;;20.70;70.50;;;;;;5055460;28;1186;-71
2022/06/19 09:30:50;;;;;;;;;;;20.70;70.40;;;;;;5073150;28;1331;-70
2022/06/19 09:33:20;;;;;;;;;;;20.70;70.40;;;;;;5072956;28;1256;-70
2022/06/19 09:35:54;;;;;;;;;;;20.70;70.40;;;;;;5047909;28;1914;-70
2022/06/19 09:38:24;;;;;;;;;;;20.70;70.50;;;;;;5049263;28;1255;-71
2022/06/19 09:40:54;;;;;;;;;;;20.70;70.40;;;;;;5055106;28;1360;-71
2022/06/19 09:43:28;;;;;;;;;;;20.70;70.40;;;;;;5055192;28;1322;-71
2022/06/19 09:45:54;;;;;;;;;;;20.70;70.40;;;;;;5038535;28;1264;-71
2022/06/19 09:48:27;;;;;;;;;;;20.70;70.50;;;;;;5073158;28;1248;-71
2022/06/19 09:50:58;;;;;;;;;;;20.70;70.40;;;;;;5054916;28;1429;-70
2022/06/19 09:53:45;;;;;;;;;;;20.70;70.40;;;;;;5072862;28;1016;-71
2022/06/19 09:56:37;;;;;;;;;;;20.70;70.40;;;;;;5072619;28;1961;-70
2022/06/19 09:59:11;;;;;;;;;;;20.70;70.40;;;;;;5034409;28;1252;-70
2022/06/19 10:01:36;;;;;;;;;;;20.70;70.40;;;;;;5054567;28;1290;-71
2022/06/19 10:04:04;;;;;;;;;;;20.70;70.40;;;;;;5054897;28;1404;-71
2022/06/19 10:06:35;;;;;;;;;;;20.70;70.40;;;;;;5054592;28;1362;-71
2022/06/19 10:09:09;;;;;;;;;;;20.70;70.40;;;;;;5072634;28;1341;-71
2022/06/19 10:11:36;;;;;;;;;;;20.70;70.40;;;;;;5054695;28;1375;-71
2022/06/19 10:14:02;;;;;;;;;;;20.70;70.40;;;;;;5054441;28;1350;-70
2022/06/19 10:16:29;;;;;;;;;;;20.70;70.40;;;;;;5051441;28;2025;-71
2022/06/19 10:18:55;;;;;;;;;;;20.70;70.40;;;;;;5066574;28;1930;-70
2022/06/19 10:24:24;;;;;;;;;;;20.70;70.40;;;;;;5046635;28;1807;-68
2022/06/19 10:26:53;;;;;;;;;;;20.70;70.40;;;;;;5067044;28;1611;-69
2022/06/19 10:29:18;;;;;;;;;;;20.70;70.40;;;;;;5052816;28;796;-69
2022/06/19 10:31:47;;;;;;;;;;;20.70;70.40;;;;;;5065927;28;1342;-70
2022/06/19 10:34:22;;;;;;;;;;;20.70;70.40;;;;;;5059527;28;2176;-68
2022/06/19 10:36:52;;;;;;;;;;;20.70;70.40;;;;;;5033224;28;1770;-69
2022/06/19 10:39:36;;;;;;;;;;;20.70;70.40;;;;;;5074514;28;1130;-72
2022/06/19 10:42:06;;;;;;;;;;;20.70;70.40;;;;;;5065130;28;1546;-68
2022/06/19 10:44:51;;;;;;;;;;;20.70;70.40;;;;;;5050509;28;1305;-68
2022/06/19 10:47:19;;;;;;;;;;;20.70;70.40;;;;;;5070579;28;1161;-69
2022/06/19 10:49:47;;;;;;;;;;;20.70;70.40;;;;;;5071435;28;1091;-70
2022/06/19 10:52:35;;;;;;;;;;;20.70;70.40;;;;;;5076196;28;1371;-70
2022/06/19 10:55:06;;;;;;;;;;;20.70;70.30;;;;;;5011448;28;1890;-70
2022/06/19 10:57:36;;;;;;;;;;;20.70;70.40;;;;;;5058495;28;1310;-70
2022/06/19 11:00:03;;;;;;;;;;;20.70;70.40;;;;;;5041339;28;1391;-70
2022/06/19 11:05:14;;;;;;;;;;;20.70;70.40;;;;;;5076154;28;1690;-70
2022/06/19 11:07:40;;;;;;;;;;;20.70;70.40;;;;;;5076070;28;1301;-70
2022/06/19 11:10:13;;;;;;;;;;;20.70;70.40;;;;;;5057858;28;1162;-70
2022/06/19 11:12:43;;;;;;;;;;;20.80;70.40;;;;;;5058242;28;1384;-70
2022/06/19 11:15:21;;;;;;;;;;;20.80;70.40;;;;;;5057839;28;1957;-70
2022/06/19 11:17:46;;;;;;;;;;;20.80;70.40;;;;;;5075791;28;1352;-70
2022/06/19 11:20:21;;;;;;;;;;;20.70;70.40;;;;;;5075546;28;1166;-70
2022/06/19 11:22:47;;;;;;;;;;;20.80;70.40;;;;;;5062577;28;1192;-71
2022/06/19 11:25:33;;;;;;;;;;;20.70;70.30;;;;;;5075665;28;1349;-70
2022/06/19 11:28:04;;;;;;;;;;;20.80;70.40;;;;;;5068796;28;1147;-70
2022/06/19 11:30:34;;;;;;;;;;;20.80;70.40;;;;;;5057693;28;1284;-70
2022/06/19 11:33:00;;;;;;;;;;;20.80;70.70;;;;;;5047028;28;1067;-71
2022/06/19 11:35:27;;;;;;;;;;;20.80;70.80;;;;;;5055312;28;1905;-70
2022/06/19 11:37:55;;;;;;;;;;;20.80;70.70;;;;;;5057570;28;1320;-71
2022/06/19 11:40:34;;;;;;;;;;;20.80;70.70;;;;;;5074942;28;1318;-71
2022/06/19 11:43:00;;;;;;;;;;;20.80;70.60;;;;;;5057805;28;1036;-71
2022/06/19 11:45:26;;;;;;;;;;;20.80;70.60;;;;;;5056956;28;1388;-71
2022/06/19 11:47:54;;;;;;;;;;;20.80;70.50;;;;;;5075131;28;1043;-70
2022/06/19 11:50:21;;;;;;;;;;;20.80;70.50;;;;;;5075061;28;1342;-70
2022/06/19 11:52:51;;;;;;;;;;;20.80;70.50;;;;;;5057197;28;1257;-70
2022/06/19 11:55:20;;;;;;;;;;;20.80;70.50;;;;;;5057496;28;1902;-71
2022/06/19 11:57:47;;;;;;;;;;;20.80;70.60;;;;;;5075221;28;1060;-70
2022/06/19 12:00:22;;;;;;;;;;;20.80;70.50;;;;;;5057220;28;1282;-70
2022/06/19 12:02:47;;;;;;;;;;;20.80;70.50;;;;;;5055662;28;1186;-70
2022/06/19 12:05:20;;;;;;;;;;;20.80;70.50;;;;;;5028098;28;1387;-70
2022/06/19 12:07:46;;;;;;;;;;;20.80;70.50;;;;;;5074909;28;1444;-70
2022/06/19 12:10:14;;;;;;;;;;;20.80;70.50;;;;;;5074879;28;1157;-70
2022/06/19 12:12:40;;;;;;;;;;;20.80;70.50;;;;;;5074762;28;1323;-71
2022/06/19 12:15:11;;;;;;;;;;;20.80;70.50;;;;;;5056688;28;1903;-70
2022/06/19 12:17:38;;;;;;;;;;;20.80;70.50;;;;;;5074425;28;1277;-70
2022/06/19 12:20:07;;;;;;;;;;;20.80;70.60;;;;;;5039850;28;1383;-70
2022/06/19 12:22:35;;;;;;;;;;;20.80;70.50;;;;;;5056566;28;1378;-70
2022/06/19 12:25:07;;;;;;;;;;;20.80;70.60;;;;;;5074436;28;1338;-71
2022/06/19 12:27:34;;;;;;;;;;;20.80;70.50;;;;;;5056440;28;1351;-70
2022/06/19 12:30:00;;;;;;;;;;;20.80;70.50;;;;;;5056453;28;1393;-69
2022/06/19 12:32:30;;;;;;;;;;;20.80;74.20;;;;;;5056528;28;1325;-69
2022/06/19 12:34:57;;;;;;;;;;;21.10;72.70;;;;;;5050924;28;2076;-69
2022/06/19 12:37:24;;;;;;;;;;;21.20;70.50;;;;;;5055872;28;1136;-69
2022/06/19 12:39:49;;;;;;;;;;;21.20;70.10;;;;;;5053788;28;1161;-69
2022/06/19 12:42:18;;;;;;;;;;;21.20;70.00;;;;;;5072472;28;1322;-69
2022/06/19 12:45:05;;;;;;;;;;;21.20;70.20;;;;;;5054819;28;1295;-68
2022/06/19 12:47:31;;;;;;;;;;;21.10;70.30;;;;;;5074454;28;1125;-69
2022/06/19 12:50:17;;;;;;;;;;;21.10;70.40;;;;;;5073566;28;1335;-68
2022/06/19 12:52:49;;;;;;;;;;;21.00;70.50;;;;;;5056099;28;1338;-72
2022/06/19 12:55:40;;;;;;;;;;;21.00;70.60;;;;;;5060364;28;1894;-69
2022/06/19 12:58:06;;;;;;;;;;;21.00;70.60;;;;;;5024681;28;1555;-69
2022/06/19 13:00:34;;;;;;;;;;;21.00;70.70;;;;;;5073590;28;1282;-69
2022/06/19 13:03:23;;;;;;;;;;;20.90;70.70;;;;;;5073702;28;1173;-68
2022/06/19 13:06:06;;;;;;;;;;;20.90;70.70;;;;;;5026493;28;1386;-71
2022/06/19 13:08:41;;;;;;;;;;;20.90;70.70;;;;;;5073744;28;1256;-71
2022/06/19 13:11:27;;;;;;;;;;;20.90;70.80;;;;;;5073402;28;1182;-72
2022/06/19 13:13:59;;;;;;;;;;;20.90;70.80;;;;;;5043262;28;1377;-69
2022/06/19 13:16:26;;;;;;;;;;;20.90;70.80;;;;;;5065810;28;1906;-71
2022/06/19 13:19:01;;;;;;;;;;;20.90;70.80;;;;;;5049698;28;1139;-73
2022/06/19 13:21:29;;;;;;;;;;;20.90;70.80;;;;;;5055800;28;1290;-73
2022/06/19 13:24:00;;;;;;;;;;;20.90;70.80;;;;;;5073228;28;1295;-72
2022/06/19 13:29:37;;;;;;;;;;;20.90;70.80;;;;;;5073299;28;1344;-68
2022/06/19 13:32:13;;;;;;;;;;;20.90;70.80;;;;;;5073078;28;1237;-67
2022/06/19 13:34:47;;;;;;;;;;;20.80;70.80;;;;;;5072967;28;2261;-68
2022/06/19 13:37:21;;;;;;;;;;;20.80;70.70;;;;;;5055401;28;1159;-70
2022/06/19 13:39:50;;;;;;;;;;;20.90;70.80;;;;;;5055112;28;882;-71
2022/06/19 13:42:24;;;;;;;;;;;20.80;70.80;;;;;;5055145;28;1436;-72
2022/06/19 13:45:08;;;;;;;;;;;20.80;70.70;;;;;;5073083;28;1270;-70
2022/06/19 13:47:39;;;;;;;;;;;20.90;70.80;;;;;;5073114;28;1251;-70
2022/06/19 13:50:15;;;;;;;;;;;20.90;70.80;;;;;;5054952;28;1425;-70
2022/06/19 13:52:44;;;;;;;;;;;20.90;70.80;;;;;;5055317;28;1353;-71
2022/06/19 13:55:15;;;;;;;;;;;20.90;70.70;;;;;;5071395;28;1898;-71
2022/06/19 13:57:43;;;;;;;;;;;20.80;70.70;;;;;;5052423;28;1355;-70
2022/06/19 14:00:14;;;;;;;;;;;20.80;70.70;;;;;;5054986;28;1079;-70
2022/06/19 14:02:49;;;;;;;;;;;20.80;70.70;;;;;;5043775;28;1191;-71
2022/06/19 14:05:28;;;;;;;;;;;20.80;70.70;;;;;;5072904;28;1305;-70
2022/06/19 14:07:53;;;;;;;;;;;20.80;70.70;;;;;;5054871;28;1197;-70
2022/06/19 14:10:38;;;;;;;;;;;20.80;70.70;;;;;;5071928;28;799;-71
2022/06/19 14:13:12;;;;;;;;;;;20.80;70.70;;;;;;5054938;28;1060;-70
2022/06/19 14:15:40;;;;;;;;;;;20.80;70.70;;;;;;5057160;28;1910;-71
2022/06/19 14:18:12;;;;;;;;;;;20.80;70.70;;;;;;5054936;28;1290;-71
2022/06/19 14:20:43;;;;;;;;;;;20.80;70.70;;;;;;5054117;28;1310;-71
2022/06/19 14:23:12;;;;;;;;;;;20.80;70.70;;;;;;5054885;28;1080;-70
2022/06/19 14:25:44;;;;;;;;;;;20.80;70.70;;;;;;5072377;28;1334;-71
2022/06/19 14:28:15;;;;;;;;;;;20.80;70.70;;;;;;5051661;28;1230;-70
2022/06/19 14:30:45;;;;;;;;;;;20.80;70.60;;;;;;5072330;28;1290;-70
2022/06/19 14:33:29;;;;;;;;;;;20.80;70.70;;;;;;5054771;28;1355;-70
2022/06/19 14:36:05;;;;;;;;;;;20.80;70.70;;;;;;5092744;22;2068;-73
2022/06/19 14:38:31;;;;;;;;;;;20.80;70.70;;;;;;5093255;28;1051;-73
2022/06/19 14:40:58;;;;;;;;;;;20.80;70.70;;;;;;5071873;28;1361;-74
2022/06/19 14:43:28;;;;;;;;;;;20.80;70.60;;;;;;5071215;28;1298;-74
2022/06/19 14:45:53;;;;;;;;;;;20.80;70.70;;;;;;5073522;28;1270;-73
2022/06/19 14:48:38;;;;;;;;;;;20.80;70.70;;;;;;5093451;28;1266;-73
2022/06/19 14:51:12;;;;;;;;;;;20.80;70.70;;;;;;5083250;28;1278;-73
2022/06/19 14:53:50;;;;;;;;;;;20.80;70.70;;;;;;5097982;28;1204;-74